sensor_id;sensor_type;location;lat;lon;timestamp;P1;durP1;ratioP1;P2;durP2;ratioP2
62554;SDS011;48610;52.144;8.624;2023-07-13T00:00:06;4.63;;;2.60;;
62554;SDS011;48610;52.144;8.624;2023-07-13T00:03:09;7.25;;;3.00;;
62554;SDS011;48610;52.144;8.624;2023-07-13T00:06:13;7.72;;;2.95;;
62554;SDS011;48610;52.144;8.624;2023-07-13T00:09:14;8.50;;;2.67;;
62554;SDS011;48610;52.144;8.624;2023-07-13T00:12:26;5.03;;;2.50;;
62554;SDS011;48610;52.144;8.624;2023-07-13T00:15:29;7.60;;;3.10;;
62554;SDS011;48610;52.144;8.624;2023-07-13T00:18:31;9.45;;;2.85;;
62554;SDS011;48610;52.144;8.624;2023-07-13T00:21:32;6.05;;;2.70;;
62554;SDS011;48610;52.144;8.624;2023-07-13T00:24:32;6.93;;;2.63;;
62554;SDS011;48610;52.144;8.624;2023-07-13T00:27:33;6.68;;;2.75;;
62554;SDS011;48610;52.144;8.624;2023-07-13T00:30:34;5.57;;;2.30;;
62554;SDS011;48610;52.144;8.624;2023-07-13T00:33:34;5.90;;;2.60;;
62554;SDS011;48610;52.144;8.624;2023-07-13T00:36:35;4.28;;;2.92;;
62554;SDS011;48610;52.144;8.624;2023-07-13T00:39:36;8.02;;;2.53;;
62554;SDS011;48610;52.144;8.624;2023-07-13T00:42:36;6.55;;;2.60;;
62554;SDS011;48610;52.144;8.624;2023-07-13T00:48:44;10.23;;;3.20;;
62554;SDS011;48610;52.144;8.624;2023-07-13T00:51:52;6.35;;;3.00;;
62554;SDS011;48610;52.144;8.624;2023-07-13T00:54:56;6.80;;;2.90;;
62554;SDS011;48610;52.144;8.624;2023-07-13T00:57:57;8.90;;;2.80;;
62554;SDS011;48610;52.144;8.624;2023-07-13T01:00:58;3.88;;;2.38;;
62554;SDS011;48610;52.144;8.624;2023-07-13T01:03:59;11.02;;;2.88;;
62554;SDS011;48610;52.144;8.624;2023-07-13T01:07:00;3.88;;;2.75;;
62554;SDS011;48610;52.144;8.624;2023-07-13T01:10:00;6.22;;;2.88;;
62554;SDS011;48610;52.144;8.624;2023-07-13T01:13:01;2.55;;;2.35;;
62554;SDS011;48610;52.144;8.624;2023-07-13T01:16:05;3.85;;;2.65;;
62554;SDS011;48610;52.144;8.624;2023-07-13T01:19:19;4.97;;;2.75;;
62554;SDS011;48610;52.144;8.624;2023-07-13T01:22:25;8.15;;;2.67;;
62554;SDS011;48610;52.144;8.624;2023-07-13T01:25:26;6.97;;;2.70;;
62554;SDS011;48610;52.144;8.624;2023-07-13T01:28:27;7.43;;;3.25;;
62554;SDS011;48610;52.144;8.624;2023-07-13T01:31:28;10.10;;;3.17;;
62554;SDS011;48610;52.144;8.624;2023-07-13T01:34:29;12.07;;;3.03;;
62554;SDS011;48610;52.144;8.624;2023-07-13T01:37:29;8.20;;;2.33;;
62554;SDS011;48610;52.144;8.624;2023-07-13T01:40:36;6.78;;;2.88;;
62554;SDS011;48610;52.144;8.624;2023-07-13T01:43:37;5.72;;;2.92;;
62554;SDS011;48610;52.144;8.624;2023-07-13T01:46:38;5.32;;;2.88;;
62554;SDS011;48610;52.144;8.624;2023-07-13T01:49:38;7.53;;;2.85;;
62554;SDS011;48610;52.144;8.624;2023-07-13T01:52:39;7.00;;;2.95;;
62554;SDS011;48610;52.144;8.624;2023-07-13T01:55:40;5.38;;;3.03;;
62554;SDS011;48610;52.144;8.624;2023-07-13T01:58:41;6.00;;;2.55;;
62554;SDS011;48610;52.144;8.624;2023-07-13T02:01:41;8.00;;;2.75;;
62554;SDS011;48610;52.144;8.624;2023-07-13T02:04:42;7.13;;;2.80;;
62554;SDS011;48610;52.144;8.624;2023-07-13T02:07:42;9.55;;;2.80;;
62554;SDS011;48610;52.144;8.624;2023-07-13T02:10:43;11.63;;;3.63;;
62554;SDS011;48610;52.144;8.624;2023-07-13T02:13:44;6.68;;;3.05;;
62554;SDS011;48610;52.144;8.624;2023-07-13T02:16:44;5.13;;;2.65;;
62554;SDS011;48610;52.144;8.624;2023-07-13T02:19:45;6.95;;;2.92;;
62554;SDS011;48610;52.144;8.624;2023-07-13T02:22:45;7.55;;;2.60;;
62554;SDS011;48610;52.144;8.624;2023-07-13T02:25:46;4.97;;;2.63;;
62554;SDS011;48610;52.144;8.624;2023-07-13T02:28:47;7.32;;;2.97;;
62554;SDS011;48610;52.144;8.624;2023-07-13T02:31:47;10.25;;;3.25;;
62554;SDS011;48610;52.144;8.624;2023-07-13T02:34:48;7.63;;;2.58;;
62554;SDS011;48610;52.144;8.624;2023-07-13T02:37:48;11.13;;;3.35;;
62554;SDS011;48610;52.144;8.624;2023-07-13T02:40:49;10.20;;;2.72;;
62554;SDS011;48610;52.144;8.624;2023-07-13T02:43:50;6.85;;;3.13;;
62554;SDS011;48610;52.144;8.624;2023-07-13T02:46:50;6.75;;;3.28;;
62554;SDS011;48610;52.144;8.624;2023-07-13T02:49:51;7.13;;;2.90;;
62554;SDS011;48610;52.144;8.624;2023-07-13T02:52:51;14.05;;;4.00;;
62554;SDS011;48610;52.144;8.624;2023-07-13T02:55:52;5.22;;;3.00;;
62554;SDS011;48610;52.144;8.624;2023-07-13T02:58:53;7.30;;;3.22;;
62554;SDS011;48610;52.144;8.624;2023-07-13T03:01:54;7.88;;;3.28;;
62554;SDS011;48610;52.144;8.624;2023-07-13T03:04:55;6.55;;;2.72;;
62554;SDS011;48610;52.144;8.624;2023-07-13T03:07:56;10.63;;;3.17;;
62554;SDS011;48610;52.144;8.624;2023-07-13T03:11:00;6.32;;;2.85;;
62554;SDS011;48610;52.144;8.624;2023-07-13T03:14:02;7.88;;;3.08;;
62554;SDS011;48610;52.144;8.624;2023-07-13T03:17:02;11.38;;;3.85;;
62554;SDS011;48610;52.144;8.624;2023-07-13T03:20:03;9.77;;;3.10;;
62554;SDS011;48610;52.144;8.624;2023-07-13T03:23:04;13.60;;;3.67;;
62554;SDS011;48610;52.144;8.624;2023-07-13T03:26:06;7.32;;;3.50;;
62554;SDS011;48610;52.144;8.624;2023-07-13T03:29:12;7.57;;;3.08;;
62554;SDS011;48610;52.144;8.624;2023-07-13T03:32:13;7.22;;;3.30;;
62554;SDS011;48610;52.144;8.624;2023-07-13T03:35:14;6.75;;;2.95;;
62554;SDS011;48610;52.144;8.624;2023-07-13T03:38:14;11.10;;;3.38;;
62554;SDS011;48610;52.144;8.624;2023-07-13T03:41:15;6.55;;;3.05;;
62554;SDS011;48610;52.144;8.624;2023-07-13T03:44:16;7.40;;;3.67;;
62554;SDS011;48610;52.144;8.624;2023-07-13T03:47:18;8.25;;;3.20;;
62554;SDS011;48610;52.144;8.624;2023-07-13T03:50:18;11.32;;;2.92;;
62554;SDS011;48610;52.144;8.624;2023-07-13T03:53:19;15.73;;;3.58;;
62554;SDS011;48610;52.144;8.624;2023-07-13T03:56:20;5.85;;;2.90;;
62554;SDS011;48610;52.144;8.624;2023-07-13T03:59:20;9.55;;;3.03;;
62554;SDS011;48610;52.144;8.624;2023-07-13T04:02:21;10.52;;;3.05;;
62554;SDS011;48610;52.144;8.624;2023-07-13T04:05:22;9.25;;;2.85;;
62554;SDS011;48610;52.144;8.624;2023-07-13T04:08:23;7.72;;;3.10;;
62554;SDS011;48610;52.144;8.624;2023-07-13T04:11:24;9.00;;;2.97;;
62554;SDS011;48610;52.144;8.624;2023-07-13T04:14:26;7.57;;;2.83;;
62554;SDS011;48610;52.144;8.624;2023-07-13T04:17:27;6.65;;;3.20;;
62554;SDS011;48610;52.144;8.624;2023-07-13T04:20:28;8.35;;;3.00;;
62554;SDS011;48610;52.144;8.624;2023-07-13T04:23:29;14.18;;;3.45;;
62554;SDS011;48610;52.144;8.624;2023-07-13T04:26:29;11.18;;;3.20;;
62554;SDS011;48610;52.144;8.624;2023-07-13T04:29:30;7.97;;;3.42;;
62554;SDS011;48610;52.144;8.624;2023-07-13T04:32:31;13.40;;;3.47;;
62554;SDS011;48610;52.144;8.624;2023-07-13T04:35:32;18.02;;;3.72;;
62554;SDS011;48610;52.144;8.624;2023-07-13T04:38:32;8.38;;;3.30;;
62554;SDS011;48610;52.144;8.624;2023-07-13T04:41:33;8.73;;;3.17;;
62554;SDS011;48610;52.144;8.624;2023-07-13T04:44:34;12.20;;;3.80;;
62554;SDS011;48610;52.144;8.624;2023-07-13T04:47:34;13.25;;;3.53;;
62554;SDS011;48610;52.144;8.624;2023-07-13T04:50:38;8.73;;;3.60;;
62554;SDS011;48610;52.144;8.624;2023-07-13T04:53:38;8.45;;;3.17;;
62554;SDS011;48610;52.144;8.624;2023-07-13T04:56:39;11.65;;;3.00;;
62554;SDS011;48610;52.144;8.624;2023-07-13T04:59:40;7.80;;;2.50;;
62554;SDS011;48610;52.144;8.624;2023-07-13T05:02:42;7.00;;;2.50;;
62554;SDS011;48610;52.144;8.624;2023-07-13T05:05:53;4.32;;;2.45;;
62554;SDS011;48610;52.144;8.624;2023-07-13T05:08:58;3.95;;;2.08;;
62554;SDS011;48610;52.144;8.624;2023-07-13T05:11:59;6.43;;;2.65;;
62554;SDS011;48610;52.144;8.624;2023-07-13T05:14:59;6.57;;;2.50;;
62554;SDS011;48610;52.144;8.624;2023-07-13T05:18:00;8.02;;;2.53;;
62554;SDS011;48610;52.144;8.624;2023-07-13T05:21:02;9.60;;;2.70;;
62554;SDS011;48610;52.144;8.624;2023-07-13T05:24:06;7.07;;;3.03;;
62554;SDS011;48610;52.144;8.624;2023-07-13T05:27:06;7.75;;;2.40;;
62554;SDS011;48610;52.144;8.624;2023-07-13T05:30:07;11.13;;;2.75;;
62554;SDS011;48610;52.144;8.624;2023-07-13T05:33:11;9.40;;;2.33;;
62554;SDS011;48610;52.144;8.624;2023-07-13T05:36:11;8.43;;;3.60;;
62554;SDS011;48610;52.144;8.624;2023-07-13T05:39:12;5.30;;;2.42;;
62554;SDS011;48610;52.144;8.624;2023-07-13T05:42:13;9.27;;;2.55;;
62554;SDS011;48610;52.144;8.624;2023-07-13T05:45:13;4.75;;;2.65;;
62554;SDS011;48610;52.144;8.624;2023-07-13T05:48:14;6.40;;;2.35;;
62554;SDS011;48610;52.144;8.624;2023-07-13T05:51:15;8.10;;;2.70;;
62554;SDS011;48610;52.144;8.624;2023-07-13T05:54:16;5.40;;;2.80;;
62554;SDS011;48610;52.144;8.624;2023-07-13T05:57:16;8.32;;;2.72;;
62554;SDS011;48610;52.144;8.624;2023-07-13T06:00:17;9.00;;;3.15;;
62554;SDS011;48610;52.144;8.624;2023-07-13T06:03:18;6.05;;;2.88;;
62554;SDS011;48610;52.144;8.624;2023-07-13T06:06:18;8.65;;;2.40;;
62554;SDS011;48610;52.144;8.624;2023-07-13T06:09:19;6.68;;;2.47;;
62554;SDS011;48610;52.144;8.624;2023-07-13T06:12:19;10.40;;;3.00;;
62554;SDS011;48610;52.144;8.624;2023-07-13T06:15:20;7.07;;;2.40;;
62554;SDS011;48610;52.144;8.624;2023-07-13T06:18:20;7.85;;;2.97;;
62554;SDS011;48610;52.144;8.624;2023-07-13T06:21:22;5.13;;;2.35;;
62554;SDS011;48610;52.144;8.624;2023-07-13T06:24:23;11.15;;;2.92;;
62554;SDS011;48610;52.144;8.624;2023-07-13T06:27:23;9.30;;;2.83;;
62554;SDS011;48610;52.144;8.624;2023-07-13T06:30:24;11.30;;;3.40;;
62554;SDS011;48610;52.144;8.624;2023-07-13T06:33:25;11.73;;;3.08;;
62554;SDS011;48610;52.144;8.624;2023-07-13T06:36:26;18.90;;;3.03;;
62554;SDS011;48610;52.144;8.624;2023-07-13T06:39:27;10.48;;;3.03;;
62554;SDS011;48610;52.144;8.624;2023-07-13T06:42:27;7.85;;;2.95;;
62554;SDS011;48610;52.144;8.624;2023-07-13T06:45:28;9.10;;;2.90;;
62554;SDS011;48610;52.144;8.624;2023-07-13T06:48:28;10.30;;;3.30;;
62554;SDS011;48610;52.144;8.624;2023-07-13T06:51:29;4.97;;;2.97;;
62554;SDS011;48610;52.144;8.624;2023-07-13T06:54:29;10.45;;;3.50;;
62554;SDS011;48610;52.144;8.624;2023-07-13T06:57:30;8.63;;;3.45;;
62554;SDS011;48610;52.144;8.624;2023-07-13T07:00:30;16.50;;;3.25;;
62554;SDS011;48610;52.144;8.624;2023-07-13T07:03:31;9.82;;;3.17;;
62554;SDS011;48610;52.144;8.624;2023-07-13T07:06:32;10.70;;;3.78;;
62554;SDS011;48610;52.144;8.624;2023-07-13T07:09:33;7.78;;;3.28;;
62554;SDS011;48610;52.144;8.624;2023-07-13T07:12:33;13.20;;;3.70;;
62554;SDS011;48610;52.144;8.624;2023-07-13T07:15:34;11.88;;;3.80;;
62554;SDS011;48610;52.144;8.624;2023-07-13T07:18:35;8.02;;;3.10;;
62554;SDS011;48610;52.144;8.624;2023-07-13T07:21:36;9.95;;;3.58;;
62554;SDS011;48610;52.144;8.624;2023-07-13T07:24:37;8.32;;;2.90;;
62554;SDS011;48610;52.144;8.624;2023-07-13T07:27:37;13.10;;;4.05;;
62554;SDS011;48610;52.144;8.624;2023-07-13T07:30:41;12.70;;;3.35;;
62554;SDS011;48610;52.144;8.624;2023-07-13T07:33:43;6.38;;;3.00;;
62554;SDS011;48610;52.144;8.624;2023-07-13T07:36:44;8.00;;;3.35;;
62554;SDS011;48610;52.144;8.624;2023-07-13T07:39:44;7.72;;;3.00;;
62554;SDS011;48610;52.144;8.624;2023-07-13T07:42:45;8.35;;;3.42;;
62554;SDS011;48610;52.144;8.624;2023-07-13T07:45:45;13.55;;;3.92;;
62554;SDS011;48610;52.144;8.624;2023-07-13T07:48:46;10.98;;;3.10;;
62554;SDS011;48610;52.144;8.624;2023-07-13T07:51:46;10.57;;;3.67;;
62554;SDS011;48610;52.144;8.624;2023-07-13T07:54:47;8.68;;;3.25;;
62554;SDS011;48610;52.144;8.624;2023-07-13T07:57:48;14.75;;;3.75;;
62554;SDS011;48610;52.144;8.624;2023-07-13T08:00:49;14.00;;;3.95;;
62554;SDS011;48610;52.144;8.624;2023-07-13T08:03:49;11.07;;;3.30;;
62554;SDS011;48610;52.144;8.624;2023-07-13T08:06:50;5.85;;;3.13;;
62554;SDS011;48610;52.144;8.624;2023-07-13T08:09:53;8.32;;;3.47;;
62554;SDS011;48610;52.144;8.624;2023-07-13T08:12:54;6.85;;;3.60;;
62554;SDS011;48610;52.144;8.624;2023-07-13T08:15:55;11.35;;;3.40;;
62554;SDS011;48610;52.144;8.624;2023-07-13T08:18:55;8.57;;;3.50;;
62554;SDS011;48610;52.144;8.624;2023-07-13T08:21:56;8.82;;;3.63;;
62554;SDS011;48610;52.144;8.624;2023-07-13T08:24:56;9.48;;;3.78;;
62554;SDS011;48610;52.144;8.624;2023-07-13T08:27:57;8.10;;;3.40;;
62554;SDS011;48610;52.144;8.624;2023-07-13T08:31:02;7.30;;;3.25;;
62554;SDS011;48610;52.144;8.624;2023-07-13T08:34:03;9.20;;;3.20;;
62554;SDS011;48610;52.144;8.624;2023-07-13T08:37:04;9.77;;;3.53;;
62554;SDS011;48610;52.144;8.624;2023-07-13T08:40:05;6.95;;;3.03;;
62554;SDS011;48610;52.144;8.624;2023-07-13T08:43:18;8.60;;;2.95;;
62554;SDS011;48610;52.144;8.624;2023-07-13T08:46:32;7.70;;;3.30;;
62554;SDS011;48610;52.144;8.624;2023-07-13T08:49:40;5.93;;;2.90;;
62554;SDS011;48610;52.144;8.624;2023-07-13T08:52:41;7.53;;;2.45;;
62554;SDS011;48610;52.144;8.624;2023-07-13T08:55:43;6.00;;;3.03;;
62554;SDS011;48610;52.144;8.624;2023-07-13T08:58:45;5.47;;;2.70;;
62554;SDS011;48610;52.144;8.624;2023-07-13T09:05:13;4.40;;;2.70;;
62554;SDS011;48610;52.144;8.624;2023-07-13T09:08:30;6.68;;;3.10;;
62554;SDS011;48610;52.144;8.624;2023-07-13T09:11:45;7.20;;;3.17;;
62554;SDS011;48610;52.144;8.624;2023-07-13T09:14:53;3.85;;;2.35;;
62554;SDS011;48610;52.144;8.624;2023-07-13T09:17:57;8.15;;;2.88;;
62554;SDS011;48610;52.144;8.624;2023-07-13T09:21:17;5.43;;;2.47;;
62554;SDS011;48610;52.144;8.624;2023-07-13T09:24:31;6.07;;;2.35;;
62554;SDS011;48610;52.144;8.624;2023-07-13T09:27:42;7.88;;;2.60;;
62554;SDS011;48610;52.144;8.624;2023-07-13T09:31:06;5.18;;;2.45;;
62554;SDS011;48610;52.144;8.624;2023-07-13T09:34:10;14.47;;;3.13;;
62554;SDS011;48610;52.144;8.624;2023-07-13T09:37:12;6.95;;;2.35;;
62554;SDS011;48610;52.144;8.624;2023-07-13T09:40:25;4.57;;;2.40;;
62554;SDS011;48610;52.144;8.624;2023-07-13T09:47:18;4.90;;;2.60;;
62554;SDS011;48610;52.144;8.624;2023-07-13T09:50:23;5.00;;;2.40;;
62554;SDS011;48610;52.144;8.624;2023-07-13T09:53:24;5.88;;;2.50;;
62554;SDS011;48610;52.144;8.624;2023-07-13T09:56:30;6.60;;;2.67;;
62554;SDS011;48610;52.144;8.624;2023-07-13T09:59:35;8.90;;;2.75;;
62554;SDS011;48610;52.144;8.624;2023-07-13T10:02:40;3.85;;;2.45;;
62554;SDS011;48610;52.144;8.624;2023-07-13T10:05:42;5.82;;;2.30;;
62554;SDS011;48610;52.144;8.624;2023-07-13T10:08:45;8.05;;;2.85;;
62554;SDS011;48610;52.144;8.624;2023-07-13T10:11:46;3.78;;;2.28;;
62554;SDS011;48610;52.144;8.624;2023-07-13T10:14:55;3.53;;;2.53;;
62554;SDS011;48610;52.144;8.624;2023-07-13T10:17:58;6.45;;;2.53;;
62554;SDS011;48610;52.144;8.624;2023-07-13T10:21:10;5.43;;;2.65;;
62554;SDS011;48610;52.144;8.624;2023-07-13T10:27:43;4.72;;;2.20;;
62554;SDS011;48610;52.144;8.624;2023-07-13T10:30:45;5.72;;;2.33;;
62554;SDS011;48610;52.144;8.624;2023-07-13T10:33:48;6.50;;;2.17;;
62554;SDS011;48610;52.144;8.624;2023-07-13T10:36:51;5.30;;;2.58;;
62554;SDS011;48610;52.144;8.624;2023-07-13T10:39:53;4.60;;;2.30;;
62554;SDS011;48610;52.144;8.624;2023-07-13T10:42:56;9.02;;;2.65;;
62554;SDS011;48610;52.144;8.624;2023-07-13T10:45:59;3.28;;;2.10;;
62554;SDS011;48610;52.144;8.624;2023-07-13T10:49:03;4.28;;;2.28;;
62554;SDS011;48610;52.144;8.624;2023-07-13T11:02:14;4.93;;;2.60;;
62554;SDS011;48610;52.144;8.624;2023-07-13T11:05:32;4.65;;;2.47;;
62554;SDS011;48610;52.144;8.624;2023-07-13T11:08:35;6.20;;;2.78;;
62554;SDS011;48610;52.144;8.624;2023-07-13T11:11:38;4.70;;;2.63;;
62554;SDS011;48610;52.144;8.624;2023-07-13T11:15:03;4.68;;;2.45;;
62554;SDS011;48610;52.144;8.624;2023-07-13T11:18:10;8.35;;;2.60;;
62554;SDS011;48610;52.144;8.624;2023-07-13T11:21:21;6.85;;;2.38;;
62554;SDS011;48610;52.144;8.624;2023-07-13T11:24:28;4.57;;;2.45;;
62554;SDS011;48610;52.144;8.624;2023-07-13T11:27:52;5.93;;;2.80;;
62554;SDS011;48610;52.144;8.624;2023-07-13T11:33:56;8.32;;;3.17;;
62554;SDS011;48610;52.144;8.624;2023-07-13T11:36:58;7.40;;;3.22;;
62554;SDS011;48610;52.144;8.624;2023-07-13T11:39:59;7.75;;;2.85;;
62554;SDS011;48610;52.144;8.624;2023-07-13T11:43:00;5.03;;;3.00;;
62554;SDS011;48610;52.144;8.624;2023-07-13T11:46:15;5.65;;;3.13;;
62554;SDS011;48610;52.144;8.624;2023-07-13T11:49:29;5.68;;;3.00;;
62554;SDS011;48610;52.144;8.624;2023-07-13T11:52:32;6.18;;;2.90;;
62554;SDS011;48610;52.144;8.624;2023-07-13T11:55:37;5.47;;;3.13;;
62554;SDS011;48610;52.144;8.624;2023-07-13T11:58:38;6.68;;;3.45;;
62554;SDS011;48610;52.144;8.624;2023-07-13T12:01:43;6.80;;;3.17;;
62554;SDS011;48610;52.144;8.624;2023-07-13T12:04:45;6.70;;;3.70;;
62554;SDS011;48610;52.144;8.624;2023-07-13T12:07:47;6.93;;;3.63;;
62554;SDS011;48610;52.144;8.624;2023-07-13T12:10:56;7.10;;;3.80;;
62554;SDS011;48610;52.144;8.624;2023-07-13T12:13:57;8.05;;;3.90;;
62554;SDS011;48610;52.144;8.624;2023-07-13T12:16:58;5.97;;;3.88;;
62554;SDS011;48610;52.144;8.624;2023-07-13T12:19:58;7.82;;;4.32;;
62554;SDS011;48610;52.144;8.624;2023-07-13T12:22:59;8.80;;;3.40;;
62554;SDS011;48610;52.144;8.624;2023-07-13T12:26:03;6.47;;;3.20;;
62554;SDS011;48610;52.144;8.624;2023-07-13T12:29:05;5.22;;;3.40;;
62554;SDS011;48610;52.144;8.624;2023-07-13T12:32:08;6.60;;;3.45;;
62554;SDS011;48610;52.144;8.624;2023-07-13T12:35:13;5.80;;;3.40;;
62554;SDS011;48610;52.144;8.624;2023-07-13T12:38:16;6.47;;;3.30;;
62554;SDS011;48610;52.144;8.624;2023-07-13T12:41:17;5.13;;;3.38;;
62554;SDS011;48610;52.144;8.624;2023-07-13T12:44:27;8.52;;;3.58;;
62554;SDS011;48610;52.144;8.624;2023-07-13T12:47:30;9.55;;;3.65;;
62554;SDS011;48610;52.144;8.624;2023-07-13T12:50:34;7.43;;;3.40;;
62554;SDS011;48610;52.144;8.624;2023-07-13T12:53:43;5.05;;;3.25;;
62554;SDS011;48610;52.144;8.624;2023-07-13T12:56:49;5.95;;;3.10;;
62554;SDS011;48610;52.144;8.624;2023-07-13T12:59:53;6.55;;;2.88;;
62554;SDS011;48610;52.144;8.624;2023-07-13T13:02:55;5.97;;;2.70;;
62554;SDS011;48610;52.144;8.624;2023-07-13T13:06:39;4.32;;;2.45;;
62554;SDS011;48610;52.144;8.624;2023-07-13T13:09:24;4.65;;;2.60;;
62554;SDS011;48610;52.144;8.624;2023-07-13T13:12:25;3.65;;;2.47;;
62554;SDS011;48610;52.144;8.624;2023-07-13T13:15:26;5.78;;;2.70;;
62554;SDS011;48610;52.144;8.624;2023-07-13T13:18:27;9.20;;;2.70;;
62554;SDS011;48610;52.144;8.624;2023-07-13T13:21:28;9.15;;;2.40;;
62554;SDS011;48610;52.144;8.624;2023-07-13T13:24:29;5.38;;;1.80;;
62554;SDS011;48610;52.144;8.624;2023-07-13T13:27:29;4.00;;;2.10;;
62554;SDS011;48610;52.144;8.624;2023-07-13T13:30:30;6.38;;;2.47;;
62554;SDS011;48610;52.144;8.624;2023-07-13T13:33:31;7.25;;;2.13;;
62554;SDS011;48610;52.144;8.624;2023-07-13T13:36:32;5.00;;;1.95;;
62554;SDS011;48610;52.144;8.624;2023-07-13T13:39:36;3.67;;;2.25;;
62554;SDS011;48610;52.144;8.624;2023-07-13T13:45:39;6.10;;;2.03;;
62554;SDS011;48610;52.144;8.624;2023-07-13T13:48:40;6.53;;;1.98;;
62554;SDS011;48610;52.144;8.624;2023-07-13T13:51:41;3.20;;;2.17;;
62554;SDS011;48610;52.144;8.624;2023-07-13T13:54:41;2.15;;;1.98;;
62554;SDS011;48610;52.144;8.624;2023-07-13T13:57:42;3.85;;;2.20;;
62554;SDS011;48610;52.144;8.624;2023-07-13T14:00:43;3.13;;;2.22;;
62554;SDS011;48610;52.144;8.624;2023-07-13T14:03:45;5.53;;;2.55;;
62554;SDS011;48610;52.144;8.624;2023-07-13T14:06:48;2.75;;;2.40;;
62554;SDS011;48610;52.144;8.624;2023-07-13T14:09:49;3.45;;;2.53;;
62554;SDS011;48610;52.144;8.624;2023-07-13T14:12:53;5.40;;;2.72;;
62554;SDS011;48610;52.144;8.624;2023-07-13T14:15:56;4.78;;;2.97;;
62554;SDS011;48610;52.144;8.624;2023-07-13T14:18:57;6.57;;;3.03;;
62554;SDS011;48610;52.144;8.624;2023-07-13T14:21:59;7.90;;;3.00;;
62554;SDS011;48610;52.144;8.624;2023-07-13T14:25:00;6.13;;;2.83;;
62554;SDS011;48610;52.144;8.624;2023-07-13T14:28:04;3.92;;;2.38;;
62554;SDS011;48610;52.144;8.624;2023-07-13T14:31:23;2.55;;;2.33;;
62554;SDS011;48610;52.144;8.624;2023-07-13T14:34:25;3.83;;;2.55;;
62554;SDS011;48610;52.144;8.624;2023-07-13T14:37:25;2.95;;;2.58;;
62554;SDS011;48610;52.144;8.624;2023-07-13T14:40:28;3.28;;;2.70;;
62554;SDS011;48610;52.144;8.624;2023-07-13T14:43:30;5.30;;;2.70;;
62554;SDS011;48610;52.144;8.624;2023-07-13T14:46:32;4.13;;;2.55;;
62554;SDS011;48610;52.144;8.624;2023-07-13T14:49:41;2.22;;;2.00;;
62554;SDS011;48610;52.144;8.624;2023-07-13T14:52:44;1.83;;;1.73;;
62554;SDS011;48610;52.144;8.624;2023-07-13T14:55:45;3.35;;;1.90;;
62554;SDS011;48610;52.144;8.624;2023-07-13T14:58:46;3.53;;;2.10;;
62554;SDS011;48610;52.144;8.624;2023-07-13T15:01:47;3.60;;;2.15;;
62554;SDS011;48610;52.144;8.624;2023-07-13T15:04:49;2.88;;;2.08;;
62554;SDS011;48610;52.144;8.624;2023-07-13T15:07:51;3.83;;;2.60;;
62554;SDS011;48610;52.144;8.624;2023-07-13T15:10:53;2.97;;;2.30;;
62554;SDS011;48610;52.144;8.624;2023-07-13T15:13:53;4.75;;;2.53;;
62554;SDS011;48610;52.144;8.624;2023-07-13T15:16:54;6.75;;;3.55;;
62554;SDS011;48610;52.144;8.624;2023-07-13T15:19:56;3.70;;;2.72;;
62554;SDS011;48610;52.144;8.624;2023-07-13T15:22:57;14.23;;;3.10;;
62554;SDS011;48610;52.144;8.624;2023-07-13T15:25:59;4.60;;;2.95;;
62554;SDS011;48610;52.144;8.624;2023-07-13T15:28:59;7.53;;;3.58;;
62554;SDS011;48610;52.144;8.624;2023-07-13T15:32:01;5.40;;;3.25;;
62554;SDS011;48610;52.144;8.624;2023-07-13T15:35:02;5.60;;;3.25;;
62554;SDS011;48610;52.144;8.624;2023-07-13T15:38:13;6.43;;;3.17;;
62554;SDS011;48610;52.144;8.624;2023-07-13T15:41:16;4.70;;;3.35;;
62554;SDS011;48610;52.144;8.624;2023-07-13T15:44:27;4.82;;;3.08;;
62554;SDS011;48610;52.144;8.624;2023-07-13T15:47:30;9.32;;;3.20;;
62554;SDS011;48610;52.144;8.624;2023-07-13T15:50:31;8.43;;;3.40;;
62554;SDS011;48610;52.144;8.624;2023-07-13T15:53:48;6.93;;;3.13;;
62554;SDS011;48610;52.144;8.624;2023-07-13T15:56:53;6.07;;;3.03;;
62554;SDS011;48610;52.144;8.624;2023-07-13T15:59:55;6.18;;;3.10;;
62554;SDS011;48610;52.144;8.624;2023-07-13T16:02:56;5.53;;;3.25;;
62554;SDS011;48610;52.144;8.624;2023-07-13T16:05:56;7.28;;;3.70;;
62554;SDS011;48610;52.144;8.624;2023-07-13T16:08:57;6.72;;;3.55;;
62554;SDS011;48610;52.144;8.624;2023-07-13T16:11:58;5.78;;;3.85;;
62554;SDS011;48610;52.144;8.624;2023-07-13T16:14:59;4.72;;;3.60;;
62554;SDS011;48610;52.144;8.624;2023-07-13T16:18:00;7.22;;;3.60;;
62554;SDS011;48610;52.144;8.624;2023-07-13T16:21:01;5.85;;;3.75;;
62554;SDS011;48610;52.144;8.624;2023-07-13T16:24:01;5.68;;;3.30;;
62554;SDS011;48610;52.144;8.624;2023-07-13T16:27:03;4.15;;;3.10;;
62554;SDS011;48610;52.144;8.624;2023-07-13T16:30:17;8.48;;;3.33;;
62554;SDS011;48610;52.144;8.624;2023-07-13T16:33:26;12.55;;;3.35;;
62554;SDS011;48610;52.144;8.624;2023-07-13T16:36:28;4.93;;;3.50;;
62554;SDS011;48610;52.144;8.624;2023-07-13T16:39:30;10.75;;;3.33;;
62554;SDS011;48610;52.144;8.624;2023-07-13T16:42:31;4.95;;;3.22;;
62554;SDS011;48610;52.144;8.624;2023-07-13T16:45:32;7.30;;;3.50;;
62554;SDS011;48610;52.144;8.624;2023-07-13T16:48:38;7.28;;;3.25;;
62554;SDS011;48610;52.144;8.624;2023-07-13T16:51:39;6.75;;;3.25;;
62554;SDS011;48610;52.144;8.624;2023-07-13T16:54:40;5.38;;;3.10;;
62554;SDS011;48610;52.144;8.624;2023-07-13T16:57:41;6.20;;;3.15;;
62554;SDS011;48610;52.144;8.624;2023-07-13T17:00:43;4.78;;;3.22;;
62554;SDS011;48610;52.144;8.624;2023-07-13T17:03:44;5.22;;;3.00;;
62554;SDS011;48610;52.144;8.624;2023-07-13T17:06:45;5.68;;;3.17;;
62554;SDS011;48610;52.144;8.624;2023-07-13T17:09:46;6.97;;;3.30;;
62554;SDS011;48610;52.144;8.624;2023-07-13T17:12:47;5.05;;;3.38;;
62554;SDS011;48610;52.144;8.624;2023-07-13T17:15:50;8.65;;;3.17;;
62554;SDS011;48610;52.144;8.624;2023-07-13T17:18:58;6.85;;;3.40;;
62554;SDS011;48610;52.144;8.624;2023-07-13T17:21:59;7.00;;;3.28;;
62554;SDS011;48610;52.144;8.624;2023-07-13T17:25:08;5.03;;;3.33;;
62554;SDS011;48610;52.144;8.624;2023-07-13T17:28:13;4.85;;;3.35;;
62554;SDS011;48610;52.144;8.624;2023-07-13T17:31:17;6.10;;;3.05;;
62554;SDS011;48610;52.144;8.624;2023-07-13T17:34:20;4.50;;;3.17;;
62554;SDS011;48610;52.144;8.624;2023-07-13T17:37:20;5.63;;;3.30;;
62554;SDS011;48610;52.144;8.624;2023-07-13T17:40:22;4.85;;;3.30;;
62554;SDS011;48610;52.144;8.624;2023-07-13T17:43:24;5.65;;;3.30;;
62554;SDS011;48610;52.144;8.624;2023-07-13T17:46:27;7.45;;;3.50;;
62554;SDS011;48610;52.144;8.624;2023-07-13T17:49:30;6.95;;;3.58;;
62554;SDS011;48610;52.144;8.624;2023-07-13T17:52:32;4.60;;;2.90;;
62554;SDS011;48610;52.144;8.624;2023-07-13T17:55:33;5.00;;;3.28;;
62554;SDS011;48610;52.144;8.624;2023-07-13T17:58:34;6.20;;;3.47;;
62554;SDS011;48610;52.144;8.624;2023-07-13T18:01:34;5.93;;;3.45;;
62554;SDS011;48610;52.144;8.624;2023-07-13T18:04:40;5.32;;;3.50;;
62554;SDS011;48610;52.144;8.624;2023-07-13T18:07:40;5.43;;;3.50;;
62554;SDS011;48610;52.144;8.624;2023-07-13T18:10:41;5.72;;;3.50;;
62554;SDS011;48610;52.144;8.624;2023-07-13T18:13:42;7.70;;;3.85;;
62554;SDS011;48610;52.144;8.624;2023-07-13T18:16:45;7.63;;;3.80;;
62554;SDS011;48610;52.144;8.624;2023-07-13T18:19:54;6.70;;;3.20;;
62554;SDS011;48610;52.144;8.624;2023-07-13T18:22:56;5.93;;;3.33;;
62554;SDS011;48610;52.144;8.624;2023-07-13T18:25:57;8.85;;;3.47;;
62554;SDS011;48610;52.144;8.624;2023-07-13T18:28:58;5.72;;;3.30;;
62554;SDS011;48610;52.144;8.624;2023-07-13T18:31:58;5.82;;;3.38;;
62554;SDS011;48610;52.144;8.624;2023-07-13T18:35:03;5.07;;;3.20;;
62554;SDS011;48610;52.144;8.624;2023-07-13T18:38:07;5.88;;;3.35;;
62554;SDS011;48610;52.144;8.624;2023-07-13T18:41:16;6.13;;;3.20;;
62554;SDS011;48610;52.144;8.624;2023-07-13T18:44:19;3.85;;;2.90;;
62554;SDS011;48610;52.144;8.624;2023-07-13T18:47:20;6.57;;;3.10;;